createdAt,value
2017-08-29T00:03:48.321Z,21.10
2017-08-29T00:06:15.909Z,21.10
2017-08-29T00:08:42.773Z,21.10
2017-08-29T00:11:09.612Z,21.10
2017-08-29T00:13:37.073Z,21.10
2017-08-29T00:16:04.664Z,21.10
2017-08-29T00:18:31.912Z,21.10
2017-08-29T00:20:59.141Z,21.10
2017-08-29T00:23:25.990Z,21.10
2017-08-29T00:25:52.817Z,21.10
2017-08-29T00:28:20.060Z,21.10
2017-08-29T00:30:46.897Z,21.10
2017-08-29T00:33:13.759Z,21.10
2017-08-29T00:35:40.585Z,21.10
2017-08-29T00:38:08.184Z,21.10
2017-08-29T00:40:35.201Z,21.10
2017-08-29T00:43:02.428Z,21.10
2017-08-29T00:47:57.800Z,21.10
2017-08-29T00:50:25.076Z,21.10
2017-08-29T00:52:52.307Z,21.10
2017-08-29T00:55:19.919Z,21.10
2017-08-29T00:57:46.756Z,21.10
2017-08-29T01:00:13.608Z,21.10
2017-08-29T01:02:40.453Z,21.10
2017-08-29T01:05:07.704Z,21.10
2017-08-29T01:07:34.941Z,21.10
2017-08-29T01:10:01.763Z,21.10
2017-08-29T01:12:30.157Z,21.10
2017-08-29T01:17:25.461Z,21.10
2017-08-29T01:19:52.692Z,21.10
2017-08-29T01:22:19.532Z,21.10
2017-08-29T01:24:46.961Z,21.10
2017-08-29T01:27:14.832Z,21.10
2017-08-29T01:29:45.948Z,21.10
2017-08-29T01:32:12.794Z,21.10
2017-08-29T01:37:08.156Z,21.10
2017-08-29T01:42:03.544Z,21.10
2017-08-29T01:44:31.128Z,21.10
2017-08-29T01:46:58.429Z,21.10
2017-08-29T01:49:25.648Z,21.00
2017-08-29T01:51:52.512Z,21.10
2017-08-29T01:54:19.345Z,21.00
2017-08-29T01:56:46.984Z,21.00
2017-08-29T01:59:14.255Z,21.10
2017-08-29T02:01:41.056Z,21.10
2017-08-29T02:04:07.875Z,21.00
2017-08-29T02:06:34.705Z,21.10
2017-08-29T02:09:01.565Z,21.10
2017-08-29T02:11:28.389Z,21.00
2017-08-29T02:13:56.392Z,21.00
2017-08-29T02:16:23.217Z,21.00
2017-08-29T02:18:50.781Z,21.00
2017-08-29T02:21:17.656Z,21.10
2017-08-29T02:23:45.613Z,21.00
2017-08-29T02:26:12.436Z,21.00
2017-08-29T02:28:39.260Z,21.00
2017-08-29T02:31:06.084Z,21.00
2017-08-29T02:33:32.908Z,21.00
2017-08-29T02:39:03.721Z,21.00
2017-08-29T02:43:59.041Z,21.00
2017-08-29T02:46:25.864Z,21.00
2017-08-29T02:48:52.748Z,21.00
2017-08-29T02:51:19.573Z,21.00
2017-08-29T02:53:46.796Z,21.00
2017-08-29T02:56:14.162Z,21.00
2017-08-29T02:58:41.547Z,21.00
2017-08-29T03:01:08.384Z,21.00
2017-08-29T03:03:35.224Z,21.00
2017-08-29T03:08:52.557Z,21.00
2017-08-29T03:11:19.393Z,21.00
2017-08-29T03:13:46.216Z,21.00
2017-08-29T03:16:13.033Z,21.00
2017-08-29T03:18:39.864Z,21.00
2017-08-29T03:21:07.175Z,21.00
2017-08-29T03:23:34.781Z,21.00
2017-08-29T03:26:01.659Z,21.00
2017-08-29T03:28:29.617Z,21.00
2017-08-29T03:30:56.852Z,21.00
2017-08-29T03:33:23.690Z,21.00
2017-08-29T03:38:40.832Z,21.00
2017-08-29T03:41:08.188Z,21.00
2017-08-29T03:43:35.064Z,21.00
2017-08-29T03:46:01.903Z,21.00
2017-08-29T03:48:29.873Z,21.00
2017-08-29T03:50:57.105Z,21.00
2017-08-29T03:53:23.940Z,21.00
2017-08-29T03:55:51.181Z,21.00
2017-08-29T03:58:18.032Z,21.00
2017-08-29T04:00:46.381Z,21.00
2017-08-29T04:03:13.232Z,21.00
2017-08-29T04:08:31.605Z,21.00
2017-08-29T04:10:58.433Z,21.00
2017-08-29T04:13:25.281Z,21.00
2017-08-29T04:15:52.100Z,21.00
2017-08-29T04:18:19.689Z,21.00
2017-08-29T04:20:46.505Z,21.00
2017-08-29T04:23:13.341Z,21.00
2017-08-29T04:25:40.568Z,21.00
2017-08-29T04:28:07.401Z,21.00
2017-08-29T04:30:35.000Z,21.00
2017-08-29T04:33:02.593Z,21.00
2017-08-29T04:35:29.459Z,21.00
2017-08-29T04:37:56.285Z,21.00
2017-08-29T04:40:23.128Z,21.00
2017-08-29T04:42:50.604Z,21.00
2017-08-29T04:45:17.431Z,21.00
2017-08-29T04:47:44.275Z,21.00
2017-08-29T04:50:11.865Z,21.00
2017-08-29T04:52:38.703Z,21.00
2017-08-29T04:55:05.540Z,21.00
2017-08-29T04:57:33.509Z,21.00
2017-08-29T05:00:00.724Z,21.00
2017-08-29T05:02:27.568Z,21.00
2017-08-29T05:04:54.388Z,21.00
2017-08-29T05:07:22.389Z,21.00
2017-08-29T05:09:49.276Z,21.00
2017-08-29T05:12:16.104Z,21.00
2017-08-29T05:14:42.924Z,21.00
2017-08-29T05:19:38.224Z,21.00
2017-08-29T05:22:05.048Z,21.00
2017-08-29T05:24:32.268Z,21.00
2017-08-29T05:26:59.501Z,21.00
2017-08-29T05:29:26.324Z,21.00
2017-08-29T05:31:53.169Z,21.00
2017-08-29T05:34:20.404Z,21.00
2017-08-29T05:36:47.224Z,21.00
2017-08-29T05:39:14.104Z,20.90
2017-08-29T05:41:40.936Z,21.00
2017-08-29T05:46:36.233Z,20.90
2017-08-29T05:49:03.053Z,21.00
2017-08-29T05:53:58.345Z,21.00
2017-08-29T05:56:25.164Z,21.00
2017-08-29T05:58:51.992Z,21.00
2017-08-29T06:01:19.241Z,21.00
2017-08-29T06:03:46.069Z,21.00
2017-08-29T06:08:58.955Z,21.00
2017-08-29T06:11:26.560Z,21.00
2017-08-29T06:13:53.392Z,21.00
2017-08-29T06:16:20.608Z,21.00
2017-08-29T06:18:47.444Z,21.00
2017-08-29T06:21:14.697Z,21.00
2017-08-29T06:23:41.552Z,21.00
2017-08-29T06:26:09.156Z,21.00
2017-08-29T06:28:37.125Z,21.00
2017-08-29T06:31:05.090Z,21.00
2017-08-29T06:33:31.960Z,21.00
2017-08-29T06:38:49.544Z,21.00
2017-08-29T06:41:16.373Z,21.00
2017-08-29T06:43:43.264Z,21.00
2017-08-29T06:46:10.489Z,21.00
2017-08-29T06:48:37.362Z,21.00
2017-08-29T06:51:04.191Z,21.00
2017-08-29T06:53:31.418Z,21.00
2017-08-29T06:55:58.251Z,21.00
2017-08-29T06:58:25.073Z,21.00
2017-08-29T07:00:52.065Z,21.00
2017-08-29T07:03:18.909Z,21.00
2017-08-29T07:08:34.944Z,21.00
2017-08-29T07:11:01.772Z,21.00
2017-08-29T07:13:28.996Z,21.00
2017-08-29T07:15:55.852Z,21.00
2017-08-29T07:18:22.665Z,21.00
2017-08-29T07:20:50.297Z,21.00
2017-08-29T07:23:17.124Z,21.00
2017-08-29T07:25:43.985Z,21.00
2017-08-29T07:28:11.572Z,21.00
2017-08-29T07:30:38.812Z,21.00
2017-08-29T07:33:06.029Z,21.00
2017-08-29T07:38:22.191Z,21.00
2017-08-29T07:40:49.061Z,21.00
2017-08-29T07:43:15.889Z,21.00
2017-08-29T07:45:43.117Z,21.00
2017-08-29T07:48:09.954Z,21.00
2017-08-29T07:50:36.800Z,21.00
2017-08-29T07:53:03.632Z,21.00
2017-08-29T07:55:31.636Z,21.00
2017-08-29T07:57:58.531Z,21.00
2017-08-29T08:00:25.356Z,21.00
2017-08-29T08:02:52.218Z,21.00
2017-08-29T08:05:19.040Z,21.00
2017-08-29T08:07:45.889Z,21.10
2017-08-29T08:10:12.716Z,21.00
2017-08-29T08:12:39.573Z,21.00
2017-08-29T08:15:06.397Z,21.00
2017-08-29T08:17:33.264Z,21.00
2017-08-29T08:20:00.096Z,21.00
2017-08-29T08:22:26.948Z,21.10
2017-08-29T08:24:53.790Z,21.10
2017-08-29T08:27:21.065Z,21.10
2017-08-29T08:29:47.897Z,21.10
2017-08-29T08:32:15.006Z,21.10
2017-08-29T08:34:41.849Z,21.10
2017-08-29T08:37:08.708Z,21.10
2017-08-29T08:39:36.676Z,21.10
2017-08-29T08:42:03.505Z,21.10
2017-08-29T08:44:30.372Z,21.10
2017-08-29T08:46:57.221Z,21.10
2017-08-29T08:49:24.072Z,21.10
2017-08-29T08:51:51.306Z,21.10
2017-08-29T08:54:18.156Z,21.10
2017-08-29T08:56:44.989Z,21.10
2017-08-29T08:59:12.260Z,21.10
2017-08-29T09:01:40.612Z,21.10
2017-08-29T09:04:08.600Z,21.10
2017-08-29T09:09:07.893Z,21.10
2017-08-29T09:11:34.712Z,21.10
2017-08-29T09:14:01.540Z,21.10
2017-08-29T09:16:28.769Z,21.10
2017-08-29T09:18:55.605Z,21.10
2017-08-29T09:21:22.425Z,21.10
2017-08-29T09:23:49.249Z,21.10
2017-08-29T09:26:17.324Z,21.10
2017-08-29T09:28:44.148Z,21.10
2017-08-29T09:31:11.061Z,21.10
2017-08-29T09:33:37.913Z,21.10
2017-08-29T09:36:04.792Z,21.10
2017-08-29T09:38:32.012Z,21.20
2017-08-29T09:40:59.289Z,21.20
2017-08-29T09:43:26.124Z,21.10
2017-08-29T09:45:52.976Z,21.20
2017-08-29T09:48:20.944Z,21.20
2017-08-29T09:50:48.587Z,21.20
2017-08-29T09:53:15.425Z,21.20
2017-08-29T09:55:42.268Z,21.20
2017-08-29T09:58:09.088Z,21.20
2017-08-29T10:00:36.313Z,21.20
2017-08-29T10:03:03.147Z,21.20
2017-08-29T10:05:29.992Z,21.20
2017-08-29T10:07:56.832Z,21.20
2017-08-29T10:10:24.057Z,21.20
2017-08-29T10:12:52.429Z,21.20
2017-08-29T10:15:19.659Z,21.20
2017-08-29T10:17:48.652Z,21.20
2017-08-29T10:20:15.753Z,21.20
2017-08-29T10:22:42.613Z,21.20
2017-08-29T10:25:09.452Z,21.30
2017-08-29T10:27:36.296Z,21.20
2017-08-29T10:30:03.129Z,21.30
2017-08-29T10:32:29.969Z,21.30
2017-08-29T10:34:56.796Z,21.30
2017-08-29T10:37:23.640Z,21.30
2017-08-29T10:39:50.465Z,21.30
2017-08-29T10:42:19.085Z,21.30
2017-08-29T10:44:47.500Z,21.30
2017-08-29T10:47:14.785Z,21.30
2017-08-29T10:49:41.644Z,21.30
2017-08-29T10:52:08.473Z,21.30
2017-08-29T10:54:35.327Z,21.30
2017-08-29T10:57:02.920Z,21.30
2017-08-29T10:59:30.410Z,21.30
2017-08-29T11:01:57.637Z,21.30
2017-08-29T11:04:24.472Z,21.30
2017-08-29T11:06:51.696Z,21.40
2017-08-29T11:09:18.567Z,21.40
2017-08-29T11:11:45.800Z,21.40
2017-08-29T11:14:12.664Z,21.40
2017-08-29T11:16:39.517Z,21.40
2017-08-29T11:19:06.346Z,21.40
2017-08-29T11:21:34.023Z,21.40
2017-08-29T11:24:02.050Z,21.40
2017-08-29T11:26:28.898Z,21.40
2017-08-29T11:28:56.151Z,21.40
2017-08-29T11:31:23.041Z,21.40
2017-08-29T11:33:49.880Z,21.40
2017-08-29T11:39:05.476Z,21.40
2017-08-29T11:41:32.329Z,21.40
2017-08-29T11:44:00.344Z,21.40
2017-08-29T11:46:28.258Z,21.40
2017-08-29T11:48:55.508Z,21.40
2017-08-29T11:51:22.345Z,21.40
2017-08-29T11:53:50.348Z,21.40
2017-08-29T11:56:17.593Z,21.50
2017-08-29T11:58:44.464Z,21.40
2017-08-29T12:01:11.297Z,21.50
2017-08-29T12:03:38.585Z,21.40
2017-08-29T12:09:02.192Z,21.50
2017-08-29T12:11:29.461Z,21.50
2017-08-29T12:13:57.048Z,21.50
2017-08-29T12:16:23.872Z,21.50
2017-08-29T12:18:50.733Z,21.50
2017-08-29T12:21:17.560Z,21.50
2017-08-29T12:23:44.396Z,21.50
2017-08-29T12:26:11.684Z,21.50
2017-08-29T12:28:38.511Z,21.50
2017-08-29T12:31:05.382Z,21.50
2017-08-29T12:33:32.224Z,21.50
2017-08-29T12:35:59.444Z,21.50
2017-08-29T12:38:26.276Z,21.50
2017-08-29T12:40:53.108Z,21.50
2017-08-29T12:43:20.621Z,21.60
2017-08-29T12:45:47.470Z,21.50
2017-08-29T12:48:14.328Z,21.50
2017-08-29T12:50:42.321Z,21.60
2017-08-29T12:53:09.544Z,21.60
2017-08-29T12:55:36.776Z,21.50
2017-08-29T12:58:03.609Z,21.60
2017-08-29T13:00:31.204Z,21.60
2017-08-29T13:02:58.049Z,21.60
2017-08-29T13:05:24.892Z,21.60
2017-08-29T13:07:52.120Z,21.60
2017-08-29T13:10:18.984Z,21.60
2017-08-29T13:12:46.575Z,21.60
2017-08-29T13:15:14.357Z,21.60
2017-08-29T13:17:41.217Z,21.60
2017-08-29T13:20:08.708Z,21.60
2017-08-29T13:22:35.544Z,21.60
2017-08-29T13:25:02.793Z,21.60
2017-08-29T13:27:29.625Z,21.60
2017-08-29T13:29:56.849Z,21.60
2017-08-29T13:32:23.680Z,21.60
2017-08-29T13:34:51.269Z,21.60
2017-08-29T13:37:19.605Z,21.70
2017-08-29T13:39:47.333Z,21.60
2017-08-29T13:42:14.173Z,21.60
2017-08-29T13:44:41.792Z,21.70
2017-08-29T13:47:08.625Z,21.60
2017-08-29T13:49:35.496Z,21.60
2017-08-29T13:52:02.317Z,21.70
2017-08-29T13:54:29.168Z,21.70
2017-08-29T13:56:56.004Z,21.70
2017-08-29T13:59:22.852Z,21.70
2017-08-29T14:01:49.705Z,21.70
2017-08-29T14:04:17.314Z,21.70
2017-08-29T14:06:47.368Z,21.70
2017-08-29T14:09:14.188Z,21.70
2017-08-29T14:11:41.408Z,21.70
2017-08-29T14:14:08.909Z,21.70
2017-08-29T14:16:35.776Z,21.70
2017-08-29T14:19:02.632Z,21.70
2017-08-29T14:21:30.288Z,21.70
2017-08-29T14:23:57.136Z,21.70
2017-08-29T14:26:23.976Z,21.70
2017-08-29T14:28:50.817Z,21.70
2017-08-29T14:31:17.668Z,21.70
2017-08-29T14:33:44.511Z,21.70
2017-08-29T14:39:00.642Z,21.70
2017-08-29T14:41:27.811Z,21.70
2017-08-29T14:46:34.152Z,21.70
2017-08-29T14:49:00.980Z,21.70
2017-08-29T14:51:28.233Z,21.70
2017-08-29T14:53:55.064Z,21.70
2017-08-29T14:56:45.468Z,21.80
2017-08-29T14:59:12.336Z,21.80
2017-08-29T15:01:39.598Z,21.80
2017-08-29T15:04:06.473Z,21.70
2017-08-29T15:09:13.960Z,21.80
2017-08-29T15:11:40.791Z,21.80
2017-08-29T15:14:07.620Z,21.80
2017-08-29T15:16:34.841Z,21.80
2017-08-29T15:19:01.668Z,21.80
2017-08-29T15:21:28.520Z,21.80
2017-08-29T15:23:56.108Z,21.80
2017-08-29T15:26:23.332Z,21.80
2017-08-29T15:28:50.160Z,21.80
2017-08-29T15:31:18.212Z,21.80
2017-08-29T15:33:45.044Z,21.80
2017-08-29T15:39:00.289Z,21.80
2017-08-29T15:41:27.140Z,21.80
2017-08-29T15:43:53.970Z,21.90
2017-08-29T15:46:20.829Z,21.80
2017-08-29T15:48:48.289Z,21.80
2017-08-29T15:51:15.125Z,21.90
2017-08-29T15:53:42.352Z,21.90
2017-08-29T15:56:09.580Z,21.90
2017-08-29T15:58:36.449Z,21.90
2017-08-29T16:01:03.868Z,22.00
2017-08-29T16:03:30.700Z,22.00
2017-08-29T16:08:47.686Z,22.10
2017-08-29T16:11:14.514Z,22.10
2017-08-29T16:13:41.372Z,22.10
2017-08-29T16:16:08.197Z,22.10
2017-08-29T16:18:35.064Z,22.10
2017-08-29T16:21:01.935Z,22.10
2017-08-29T16:23:29.585Z,22.10
2017-08-29T16:25:56.430Z,22.10
2017-08-29T16:28:23.272Z,22.10
2017-08-29T16:30:50.487Z,22.10
2017-08-29T16:33:17.716Z,22.10
2017-08-29T16:35:44.544Z,22.10
2017-08-29T16:38:11.372Z,22.10
2017-08-29T16:40:38.997Z,22.10
2017-08-29T16:43:05.828Z,22.10
2017-08-29T16:45:33.217Z,22.10
2017-08-29T16:48:00.156Z,22.10
2017-08-29T16:50:27.421Z,22.10
2017-08-29T16:52:55.100Z,22.10
2017-08-29T16:55:21.955Z,22.10
2017-08-29T16:57:49.581Z,22.10
2017-08-29T17:00:16.448Z,22.10
2017-08-29T17:02:43.707Z,22.10
2017-08-29T17:05:10.553Z,22.10
2017-08-29T17:07:37.809Z,22.10
2017-08-29T17:10:06.144Z,22.10
2017-08-29T17:12:33.369Z,22.10
2017-08-29T17:15:00.643Z,22.00
2017-08-29T17:17:27.469Z,22.00
2017-08-29T17:19:54.687Z,22.10
2017-08-29T17:22:21.932Z,22.10
2017-08-29T17:24:48.801Z,22.00
2017-08-29T17:27:15.656Z,22.00
2017-08-29T17:29:42.489Z,22.00
2017-08-29T17:32:09.453Z,22.00
2017-08-29T17:34:36.297Z,22.00
2017-08-29T17:37:04.277Z,22.00
2017-08-29T17:39:31.101Z,22.00
2017-08-29T17:41:57.968Z,22.00
2017-08-29T17:44:24.944Z,22.00
2017-08-29T17:46:52.169Z,22.00
2017-08-29T17:49:20.336Z,22.00
2017-08-29T17:51:47.162Z,22.00
2017-08-29T17:54:13.996Z,22.00
2017-08-29T17:56:40.835Z,22.00
2017-08-29T17:59:07.685Z,22.00
2017-08-29T18:01:34.909Z,22.00
2017-08-29T18:04:01.765Z,22.00
2017-08-29T18:09:19.205Z,22.00
2017-08-29T18:11:46.456Z,22.00
2017-08-29T18:14:13.705Z,22.00
2017-08-29T18:16:40.926Z,22.00
2017-08-29T18:19:07.787Z,22.00
2017-08-29T18:21:35.008Z,22.00
2017-08-29T18:24:02.610Z,22.00
2017-08-29T18:26:31.444Z,22.00
2017-08-29T18:28:58.293Z,22.00
2017-08-29T18:31:26.253Z,22.00
2017-08-29T18:33:53.111Z,22.00
2017-08-29T18:39:10.257Z,22.00
2017-08-29T18:41:37.145Z,22.00
2017-08-29T18:44:04.320Z,22.00
2017-08-29T18:48:59.666Z,22.00
2017-08-29T18:51:27.656Z,22.00
2017-08-29T18:53:55.638Z,22.00
2017-08-29T18:56:23.501Z,22.00
2017-08-29T18:58:50.335Z,22.00
2017-08-29T19:01:17.609Z,22.00
2017-08-29T19:03:45.588Z,22.00
2017-08-29T19:09:08.909Z,22.00
2017-08-29T19:11:35.763Z,22.00
2017-08-29T19:14:03.404Z,22.00
2017-08-29T19:16:30.246Z,22.00
2017-08-29T19:18:57.100Z,22.00
2017-08-29T19:21:23.936Z,22.00
2017-08-29T19:23:51.184Z,22.00
2017-08-29T19:26:18.009Z,22.00
2017-08-29T19:28:45.268Z,22.00
2017-08-29T19:31:12.876Z,22.00
2017-08-29T19:33:39.734Z,22.00
2017-08-29T19:38:57.488Z,22.00
2017-08-29T19:41:24.321Z,22.00
2017-08-29T19:43:51.609Z,22.00
2017-08-29T19:46:18.841Z,22.00
2017-08-29T19:48:46.088Z,22.00
2017-08-29T19:51:14.063Z,22.00
2017-08-29T19:53:41.296Z,22.00
2017-08-29T19:56:08.134Z,22.00
2017-08-29T19:58:36.101Z,22.00
2017-08-29T20:01:03.704Z,22.00
2017-08-29T20:03:30.531Z,22.00
2017-08-29T20:08:45.951Z,22.00
2017-08-29T20:11:12.779Z,22.00
2017-08-29T20:13:40.372Z,21.90
2017-08-29T20:16:07.974Z,22.00
2017-08-29T20:18:35.585Z,22.00
2017-08-29T20:21:02.848Z,22.00
2017-08-29T20:23:30.286Z,22.00
2017-08-29T20:25:57.140Z,22.00
2017-08-29T20:28:23.974Z,22.00
2017-08-29T20:30:50.803Z,22.00
2017-08-29T20:33:17.675Z,22.00
2017-08-29T20:35:44.512Z,22.00
2017-08-29T20:38:11.341Z,22.00
2017-08-29T20:40:38.168Z,21.90
2017-08-29T20:43:06.136Z,22.00
2017-08-29T20:45:34.144Z,22.00
2017-08-29T20:48:00.996Z,21.90
2017-08-29T20:50:27.845Z,22.00
2017-08-29T20:52:54.708Z,22.00
2017-08-29T20:55:21.548Z,22.00
2017-08-29T20:57:48.396Z,22.00
2017-08-29T21:00:15.228Z,21.90
2017-08-29T21:02:42.064Z,21.90
2017-08-29T21:05:09.396Z,21.90
2017-08-29T21:07:36.232Z,22.00
2017-08-29T21:10:03.070Z,22.00
2017-08-29T21:12:29.926Z,22.00
2017-08-29T21:14:56.761Z,21.90
2017-08-29T21:17:23.986Z,21.90
2017-08-29T21:19:51.583Z,21.90
2017-08-29T21:22:18.806Z,21.90
2017-08-29T21:24:45.645Z,21.90
2017-08-29T21:27:24.812Z,21.90
2017-08-29T21:29:51.670Z,21.90
2017-08-29T21:32:18.496Z,21.90
2017-08-29T21:34:45.760Z,21.90
2017-08-29T21:37:13.020Z,22.00
2017-08-29T21:39:39.855Z,21.90
2017-08-29T21:42:07.448Z,21.90
2017-08-29T21:44:34.292Z,21.90
2017-08-29T21:47:01.134Z,21.90
2017-08-29T21:49:27.980Z,21.90
2017-08-29T21:51:54.835Z,21.90
2017-08-29T21:54:22.103Z,21.90
2017-08-29T21:56:48.952Z,21.90
2017-08-29T21:59:15.793Z,21.90
2017-08-29T22:01:43.436Z,21.90
2017-08-29T22:04:10.261Z,21.90
2017-08-29T22:06:38.625Z,21.90
2017-08-29T22:09:05.920Z,21.90
2017-08-29T22:11:32.793Z,21.90
2017-08-29T22:13:59.624Z,21.90
2017-08-29T22:16:28.268Z,21.80
2017-08-29T22:18:55.492Z,21.90
2017-08-29T22:21:22.324Z,21.80
2017-08-29T22:23:49.156Z,21.90
2017-08-29T22:26:15.985Z,21.80
2017-08-29T22:28:42.844Z,21.80
2017-08-29T22:31:10.083Z,21.80
2017-08-29T22:38:56.697Z,21.90
2017-08-29T22:41:23.540Z,21.80
2017-08-29T22:43:50.367Z,21.80
2017-08-29T22:46:17.197Z,21.80
2017-08-29T22:48:44.420Z,21.80
2017-08-29T22:51:11.275Z,21.80
2017-08-29T22:53:38.876Z,21.80
2017-08-29T22:56:06.744Z,21.80
2017-08-29T22:58:33.980Z,21.80
2017-08-29T23:01:00.835Z,21.80
2017-08-29T23:03:28.168Z,21.80
2017-08-29T23:08:44.120Z,21.80
2017-08-29T23:11:10.982Z,21.80
2017-08-29T23:13:37.800Z,21.80
2017-08-29T23:16:05.023Z,21.80
2017-08-29T23:18:32.625Z,21.80
2017-08-29T23:23:38.332Z,21.80
2017-08-29T23:26:05.200Z,21.80
2017-08-29T23:28:32.048Z,21.80
2017-08-29T23:30:58.880Z,21.80
2017-08-29T23:33:26.177Z,21.80
2017-08-29T23:35:53.029Z,21.80
2017-08-29T23:38:20.931Z,21.80
2017-08-29T23:40:48.182Z,21.80
2017-08-29T23:43:15.012Z,21.80
2017-08-29T23:45:41.841Z,21.80
2017-08-29T23:48:09.059Z,21.80
2017-08-29T23:50:35.892Z,21.80
2017-08-29T23:53:02.736Z,21.80
2017-08-29T23:55:29.976Z,21.80
